Big Bear Station Historical Data
Daily Summary for August 21, 2017 Units:  English    Metric   Both
Next Day »
Daily Weekly Monthly Yearly Custom
  High: Low: Average:
Temperature: 79.7 °F 48.9 °F 62 °F
Dew Point: 49.9 °F 37.2 °F 42.7 °F
Humidity: 84% 24% 53%
Wind Speed: 6.3mph 0.0mph 1.4mph
Wind Gust: -999.0mph - -
Wind- - SW
Pressure: 30.30 in 30.22 in -
Precipitation: 0.00 in    
Historical Graphs
 
 
Tabular Data for August 21, 2017
Time Temperature Dew Point Pressure Wind Wind Speed Wind Gust Humidity Rainfall Rate (Hourly)
00:05 56.1 °F 37.2 °F 30.23 in Calm   -999.0 mph 49% 0 in
00:20 55.4 °F 37.6 °F 30.23 in Calm   -999.0 mph 51% 0 in
00:35 54.0 °F 37.7 °F 30.23 in Calm   -999.0 mph 54% 0 in
00:50 53.4 °F 37.6 °F 30.23 in Calm   -999.0 mph 55% 0 in
01:05 52.9 °F 38.1 °F 30.23 in Calm   -999.0 mph 57% 0 in
01:21 52.7 °F 38.8 °F 30.23 in Calm   -999.0 mph 59% 0 in
01:36 52.3 °F 38.8 °F 30.23 in Calm   -999.0 mph 60% 0 in
01:51 52.3 °F 39.2 °F 30.23 in Calm   -999.0 mph 61% 0 in
02:06 52.0 °F 39.4 °F 30.23 in Calm   -999.0 mph 62% 0 in
02:21 51.6 °F 40.2 °F 30.23 in Calm   -999.0 mph 65% 0 in
02:37 51.3 °F 41.1 °F 30.23 in Calm   -999.0 mph 68% 0 in
02:52 51.3 °F 41.5 °F 30.23 in Calm   -999.0 mph 69% 0 in
03:07 51.1 °F 41.7 °F 30.23 in Calm   -999.0 mph 70% 0 in
03:22 50.9 °F 41.8 °F 30.23 in Calm   -999.0 mph 71% 0 in
03:37 50.5 °F 42.2 °F 30.22 in Calm   -999.0 mph 73% 0 in
03:53 50.5 °F 42.2 °F 30.22 in Calm   -999.0 mph 73% 0 in
04:08 50.4 °F 43.1 °F 30.22 in Calm   -999.0 mph 76% 0 in
04:23 50.0 °F 43.1 °F 30.22 in Calm   -999.0 mph 77% 0 in
04:38 49.6 °F 42.7 °F 30.22 in Calm   -999.0 mph 77% 0 in
04:54 49.8 °F 43.6 °F 30.22 in Calm   -999.0 mph 79% 0 in
05:09 49.3 °F 43.4 °F 30.22 in Calm   -999.0 mph 80% 0 in
05:24 49.5 °F 43.9 °F 30.22 in Calm   -999.0 mph 81% 0 in
05:39 49.5 °F 43.9 °F 30.22 in Calm   -999.0 mph 81% 0 in
05:54 49.5 °F 44.2 °F 30.23 in Calm   -999.0 mph 82% 0 in
06:10 49.1 °F 44.2 °F 30.23 in Calm   -999.0 mph 83% 0 in
06:25 49.1 °F 44.5 °F 30.24 in Calm   -999.0 mph 84% 0 in
06:40 49.1 °F 44.2 °F 30.24 in Calm   -999.0 mph 83% 0 in
06:55 48.9 °F 43.3 °F 30.24 in Calm   -999.0 mph 81% 0 in
07:10 49.6 °F 42.0 °F 30.25 in Calm   -999.0 mph 75% 0 in
07:26 50.2 °F 41.5 °F 30.25 in Calm   -999.0 mph 72% 0 in
07:41 50.2 °F 43.6 °F 30.25 in Calm   -999.0 mph 78% 0 in
07:56 50.9 °F 45.0 °F 30.26 in Calm   -999.0 mph 80% 0 in
08:11 52.3 °F 46.3 °F 30.26 in Calm   -999.0 mph 80% 0 in
08:26 54.5 °F 44.5 °F 30.26 in Calm   -999.0 mph 69% 0 in
08:42 58.3 °F 47.0 °F 30.26 in NW 2.2 mph -999.0 mph 66% 0 in
08:57 61.5 °F 42.7 °F 30.26 in NW 3.2 mph -999.0 mph 50% 0 in
09:12 64.6 °F 42.2 °F 30.26 in NW 3.7 mph -999.0 mph 44% 0 in
09:27 66.9 °F 41.8 °F 30.27 in East 1.1 mph -999.0 mph 40% 0 in
09:42 67.6 °F 41.1 °F 30.27 in SW 6.3 mph -999.0 mph 38% 0 in
09:58 67.6 °F 41.1 °F 30.27 in NW 2.2 mph -999.0 mph 38% 0 in
10:13 67.3 °F 40.1 °F 30.27 in South 1.7 mph -999.0 mph 37% 0 in
10:28 66.9 °F 40.5 °F 30.27 in North 1.7 mph -999.0 mph 38% 0 in
10:43 67.6 °F 41.1 °F 30.27 in WSW 1.1 mph -999.0 mph 38% 0 in
10:58 69.3 °F 41.2 °F 30.28 in ESE 1.7 mph -999.0 mph 36% 0 in
11:14 71.2 °F 40.6 °F 30.28 in ENE 2.2 mph -999.0 mph 33% 0 in
11:29 73.4 °F 40.9 °F 30.28 in ENE 2.2 mph -999.0 mph 31% 0 in
11:44 75.2 °F 40.8 °F 30.27 in East 1.7 mph -999.0 mph 29% 0 in
12:00 77.4 °F 40.8 °F 30.27 in WNW 5.8 mph -999.0 mph 27% 0 in
12:15 77.4 °F 38.8 °F 30.27 in WSW 2.7 mph -999.0 mph 25% 0 in
12:30 78.1 °F 40.4 °F 30.27 in NW 3.7 mph -999.0 mph 26% 0 in
12:46 77.9 °F 40.3 °F 30.27 in East 2.7 mph -999.0 mph 26% 0 in
13:01 77.7 °F 41.1 °F 30.27 in NNW 2.7 mph -999.0 mph 27% 0 in
13:16 79.7 °F 40.8 °F 30.27 in WNW 2.7 mph -999.0 mph 25% 0 in
13:32 75.4 °F 38.1 °F 30.27 in SSE 2.7 mph -999.0 mph 26% 0 in
13:47 79.3 °F 40.4 °F 30.27 in North 3.7 mph -999.0 mph 25% 0 in
14:02 78.1 °F 39.4 °F 30.27 in Calm   -999.0 mph 25% 0 in
14:17 76.6 °F 40.1 °F 30.27 in North 2.7 mph -999.0 mph 27% 0 in
14:33 79.5 °F 39.6 °F 30.27 in ESE 3.2 mph -999.0 mph 24% 0 in
14:48 78.3 °F 43.4 °F 30.27 in SW 3.7 mph -999.0 mph 29% 0 in
15:03 76.8 °F 45.5 °F 30.26 in WNW 2.7 mph -999.0 mph 33% 0 in
15:18 77.9 °F 44.8 °F 30.26 in NNW 4.2 mph -999.0 mph 31% 0 in
15:34 75.6 °F 46.8 °F 30.26 in NNE 3.7 mph -999.0 mph 36% 0 in
15:49 75.7 °F 46.9 °F 30.26 in NW 6.3 mph -999.0 mph 36% 0 in
16:04 75.2 °F 47.1 °F 30.25 in NNE 4.7 mph -999.0 mph 37% 0 in
16:19 74.5 °F 47.9 °F 30.26 in SW 5.8 mph -999.0 mph 39% 0 in
16:35 74.3 °F 49.1 °F 30.26 in NW 4.7 mph -999.0 mph 41% 0 in
16:50 74.7 °F 48.8 °F 30.26 in West 3.2 mph -999.0 mph 40% 0 in
17:05 77.0 °F 49.5 °F 30.26 in WNW 4.2 mph -999.0 mph 38% 0 in
17:21 75.9 °F 49.9 °F 30.26 in NW 3.7 mph -999.0 mph 40% 0 in
17:36 75.2 °F 49.2 °F 30.26 in NNW 4.2 mph -999.0 mph 40% 0 in
17:51 74.5 °F 49.3 °F 30.26 in NW 4.2 mph -999.0 mph 41% 0 in
18:06 74.1 °F 48.9 °F 30.26 in WNW 1.7 mph -999.0 mph 41% 0 in
18:21 72.9 °F 48.5 °F 30.26 in WNW 2.2 mph -999.0 mph 42% 0 in
18:37 70.3 °F 48.0 °F 30.26 in ESE 1.1 mph -999.0 mph 45% 0 in
18:52 67.3 °F 47.5 °F 30.26 in North 2.2 mph -999.0 mph 49% 0 in
19:07 65.7 °F 47.1 °F 30.26 in Calm   -999.0 mph 51% 0 in
19:22 64.0 °F 47.0 °F 30.27 in Calm   -999.0 mph 54% 0 in
19:37 62.4 °F 46.5 °F 30.27 in Calm   -999.0 mph 56% 0 in
19:53 61.5 °F 45.2 °F 30.27 in Calm   -999.0 mph 55% 0 in
20:08 60.3 °F 45.0 °F 30.28 in Calm   -999.0 mph 57% 0 in
20:23 59.5 °F 43.8 °F 30.28 in Calm   -999.0 mph 56% 0 in
20:38 58.6 °F 43.9 °F 30.29 in Calm   -999.0 mph 58% 0 in
20:54 58.1 °F 43.8 °F 30.29 in Calm   -999.0 mph 59% 0 in
21:09 57.6 °F 43.4 °F 30.30 in Calm   -999.0 mph 59% 0 in
21:24 56.8 °F 42.6 °F 30.30 in Calm   -999.0 mph 59% 0 in
21:39 56.3 °F 41.3 °F 30.30 in Calm   -999.0 mph 57% 0 in
21:54 55.6 °F 41.9 °F 30.30 in Calm   -999.0 mph 60% 0 in
22:10 54.9 °F 41.3 °F 30.30 in SSW 1.7 mph -999.0 mph 60% 0 in
22:25 54.5 °F 40.0 °F 30.30 in Calm   -999.0 mph 58% 0 in
22:40 54.0 °F 40.4 °F 30.30 in Calm   -999.0 mph 60% 0 in
22:55 53.6 °F 39.6 °F 30.30 in Calm   -999.0 mph 59% 0 in
23:10 52.9 °F 39.0 °F 30.30 in Calm   -999.0 mph 59% 0 in
23:26 52.3 °F 38.4 °F 30.30 in SSE 1.7 mph -999.0 mph 59% 0 in
23:41 52.2 °F 37.9 °F 30.30 in SSE 1.1 mph -999.0 mph 58% 0 in
23:56 51.6 °F 38.2 °F 30.30 in Calm   -999.0 mph 60% 0 in
Big Bear CA Weather